sensor_id;sensor_type;location;lat;lon;timestamp;P1;durP1;ratioP1;P2;durP2;ratioP2
15567;SDS011;7885;42.596;23.044;2023-05-06T00:03:46;9.87;;;8.30;;
15567;SDS011;7885;42.596;23.044;2023-05-06T00:06:13;8.60;;;7.77;;
15567;SDS011;7885;42.596;23.044;2023-05-06T00:08:39;8.47;;;7.67;;
15567;SDS011;7885;42.596;23.044;2023-05-06T00:11:06;9.00;;;8.10;;
15567;SDS011;7885;42.596;23.044;2023-05-06T00:13:33;17.90;;;12.33;;
15567;SDS011;7885;42.596;23.044;2023-05-06T00:16:00;14.07;;;12.60;;
15567;SDS011;7885;42.596;23.044;2023-05-06T00:18:26;12.50;;;11.20;;
15567;SDS011;7885;42.596;23.044;2023-05-06T00:20:54;11.30;;;10.20;;
15567;SDS011;7885;42.596;23.044;2023-05-06T00:23:21;12.10;;;10.10;;
15567;SDS011;7885;42.596;23.044;2023-05-06T00:25:48;9.70;;;8.80;;
15567;SDS011;7885;42.596;23.044;2023-05-06T00:28:14;8.07;;;7.37;;
15567;SDS011;7885;42.596;23.044;2023-05-06T00:30:41;8.97;;;8.07;;
15567;SDS011;7885;42.596;23.044;2023-05-06T00:33:08;9.40;;;8.50;;
15567;SDS011;7885;42.596;23.044;2023-05-06T00:35:34;9.77;;;8.87;;
15567;SDS011;7885;42.596;23.044;2023-05-06T00:38:10;9.53;;;8.63;;
15567;SDS011;7885;42.596;23.044;2023-05-06T00:40:38;10.60;;;9.40;;
15567;SDS011;7885;42.596;23.044;2023-05-06T00:43:05;11.30;;;9.40;;
15567;SDS011;7885;42.596;23.044;2023-05-06T00:45:32;11.73;;;9.93;;
15567;SDS011;7885;42.596;23.044;2023-05-06T00:47:58;9.40;;;8.40;;
15567;SDS011;7885;42.596;23.044;2023-05-06T00:50:26;14.33;;;11.90;;
15567;SDS011;7885;42.596;23.044;2023-05-06T00:52:56;12.47;;;10.57;;
15567;SDS011;7885;42.596;23.044;2023-05-06T00:55:25;11.33;;;9.90;;
15567;SDS011;7885;42.596;23.044;2023-05-06T00:57:53;11.00;;;9.33;;
15567;SDS011;7885;42.596;23.044;2023-05-06T01:00:20;13.53;;;10.60;;
15567;SDS011;7885;42.596;23.044;2023-05-06T01:02:47;10.40;;;9.07;;
15567;SDS011;7885;42.596;23.044;2023-05-06T01:05:14;11.00;;;9.80;;
15567;SDS011;7885;42.596;23.044;2023-05-06T01:07:43;12.03;;;9.87;;
15567;SDS011;7885;42.596;23.044;2023-05-06T01:10:20;10.83;;;9.73;;
15567;SDS011;7885;42.596;23.044;2023-05-06T01:12:56;10.33;;;8.60;;
15567;SDS011;7885;42.596;23.044;2023-05-06T01:15:32;9.13;;;8.23;;
15567;SDS011;7885;42.596;23.044;2023-05-06T01:18:03;8.80;;;7.90;;
15567;SDS011;7885;42.596;23.044;2023-05-06T01:20:35;9.90;;;8.90;;
15567;SDS011;7885;42.596;23.044;2023-05-06T01:23:07;9.70;;;8.80;;
15567;SDS011;7885;42.596;23.044;2023-05-06T01:25:35;9.40;;;8.50;;
15567;SDS011;7885;42.596;23.044;2023-05-06T01:28:01;8.97;;;8.17;;
15567;SDS011;7885;42.596;23.044;2023-05-06T01:30:29;9.13;;;8.33;;
15567;SDS011;7885;42.596;23.044;2023-05-06T01:33:05;9.13;;;8.23;;
15567;SDS011;7885;42.596;23.044;2023-05-06T01:35:39;9.90;;;8.90;;
15567;SDS011;7885;42.596;23.044;2023-05-06T01:38:21;9.57;;;8.67;;
15567;SDS011;7885;42.596;23.044;2023-05-06T01:40:55;8.67;;;7.77;;
15567;SDS011;7885;42.596;23.044;2023-05-06T01:43:23;8.60;;;7.70;;
15567;SDS011;7885;42.596;23.044;2023-05-06T01:45:55;8.73;;;7.93;;
15567;SDS011;7885;42.596;23.044;2023-05-06T01:48:24;8.77;;;7.97;;
15567;SDS011;7885;42.596;23.044;2023-05-06T01:50:54;9.10;;;8.20;;
15567;SDS011;7885;42.596;23.044;2023-05-06T01:53:22;9.33;;;8.47;;
15567;SDS011;7885;42.596;23.044;2023-05-06T01:55:49;8.90;;;8.00;;
15567;SDS011;7885;42.596;23.044;2023-05-06T02:04:59;8.90;;;8.10;;
15567;SDS011;7885;42.596;23.044;2023-05-06T02:07:26;8.60;;;7.80;;
15567;SDS011;7885;42.596;23.044;2023-05-06T02:09:54;8.47;;;7.67;;
15567;SDS011;7885;42.596;23.044;2023-05-06T02:12:20;10.07;;;8.97;;
15567;SDS011;7885;42.596;23.044;2023-05-06T02:18:08;8.90;;;8.10;;
15567;SDS011;7885;42.596;23.044;2023-05-06T02:20:35;9.10;;;8.27;;
15567;SDS011;7885;42.596;23.044;2023-05-06T02:23:02;10.67;;;9.00;;
15567;SDS011;7885;42.596;23.044;2023-05-06T02:25:30;9.20;;;8.40;;
15567;SDS011;7885;42.596;23.044;2023-05-06T02:27:57;9.57;;;8.60;;
15567;SDS011;7885;42.596;23.044;2023-05-06T02:30:23;10.30;;;9.20;;
15567;SDS011;7885;42.596;23.044;2023-05-06T02:32:50;10.60;;;9.33;;
15567;SDS011;7885;42.596;23.044;2023-05-06T02:35:17;11.30;;;9.93;;
15567;SDS011;7885;42.596;23.044;2023-05-06T02:37:44;11.10;;;10.10;;
15567;SDS011;7885;42.596;23.044;2023-05-06T02:40:10;12.30;;;11.10;;
15567;SDS011;7885;42.596;23.044;2023-05-06T02:42:39;11.37;;;10.27;;
15567;SDS011;7885;42.596;23.044;2023-05-06T02:45:06;10.00;;;9.10;;
15567;SDS011;7885;42.596;23.044;2023-05-06T02:47:33;10.37;;;9.37;;
15567;SDS011;7885;42.596;23.044;2023-05-06T02:53:22;11.53;;;10.40;;
15567;SDS011;7885;42.596;23.044;2023-05-06T02:55:49;13.93;;;12.00;;
15567;SDS011;7885;42.596;23.044;2023-05-06T02:58:17;12.83;;;10.83;;
15567;SDS011;7885;42.596;23.044;2023-05-06T03:00:43;9.40;;;8.50;;
15567;SDS011;7885;42.596;23.044;2023-05-06T03:03:10;9.90;;;8.90;;
15567;SDS011;7885;42.596;23.044;2023-05-06T03:05:37;11.80;;;9.67;;
15567;SDS011;7885;42.596;23.044;2023-05-06T03:08:04;9.10;;;8.30;;
15567;SDS011;7885;42.596;23.044;2023-05-06T03:10:31;8.90;;;7.77;;
15567;SDS011;7885;42.596;23.044;2023-05-06T03:12:57;9.23;;;8.43;;
15567;SDS011;7885;42.596;23.044;2023-05-06T03:15:25;11.20;;;10.10;;
15567;SDS011;7885;42.596;23.044;2023-05-06T03:17:52;11.20;;;10.00;;
15567;SDS011;7885;42.596;23.044;2023-05-06T03:20:19;10.90;;;9.90;;
15567;SDS011;7885;42.596;23.044;2023-05-06T03:22:46;11.00;;;9.23;;
15567;SDS011;7885;42.596;23.044;2023-05-06T03:25:14;11.20;;;10.07;;
15567;SDS011;7885;42.596;23.044;2023-05-06T03:27:41;11.07;;;9.97;;
15567;SDS011;7885;42.596;23.044;2023-05-06T03:30:08;10.70;;;9.60;;
15567;SDS011;7885;42.596;23.044;2023-05-06T03:32:37;10.13;;;9.23;;
15567;SDS011;7885;42.596;23.044;2023-05-06T03:35:04;9.60;;;8.70;;
15567;SDS011;7885;42.596;23.044;2023-05-06T03:37:32;9.30;;;8.40;;
15567;SDS011;7885;42.596;23.044;2023-05-06T03:39:59;8.70;;;7.90;;
15567;SDS011;7885;42.596;23.044;2023-05-06T03:42:28;10.40;;;9.40;;
15567;SDS011;7885;42.596;23.044;2023-05-06T03:44:55;9.43;;;8.53;;
15567;SDS011;7885;42.596;23.044;2023-05-06T03:47:21;9.90;;;9.00;;
15567;SDS011;7885;42.596;23.044;2023-05-06T03:49:49;9.67;;;8.77;;
15567;SDS011;7885;42.596;23.044;2023-05-06T03:52:16;10.80;;;8.63;;
15567;SDS011;7885;42.596;23.044;2023-05-06T03:54:43;9.93;;;8.97;;
15567;SDS011;7885;42.596;23.044;2023-05-06T03:57:10;9.83;;;8.83;;
15567;SDS011;7885;42.596;23.044;2023-05-06T03:59:36;11.23;;;10.13;;
15567;SDS011;7885;42.596;23.044;2023-05-06T04:02:03;10.87;;;9.77;;
15567;SDS011;7885;42.596;23.044;2023-05-06T04:04:30;9.13;;;8.23;;
15567;SDS011;7885;42.596;23.044;2023-05-06T04:06:58;9.30;;;8.50;;
15567;SDS011;7885;42.596;23.044;2023-05-06T04:09:25;10.07;;;9.17;;
15567;SDS011;7885;42.596;23.044;2023-05-06T04:11:52;10.37;;;9.47;;
15567;SDS011;7885;42.596;23.044;2023-05-06T04:14:18;11.73;;;10.57;;
15567;SDS011;7885;42.596;23.044;2023-05-06T04:16:45;12.33;;;11.13;;
15567;SDS011;7885;42.596;23.044;2023-05-06T04:19:12;11.90;;;10.70;;
15567;SDS011;7885;42.596;23.044;2023-05-06T04:21:39;11.97;;;10.87;;
15567;SDS011;7885;42.596;23.044;2023-05-06T04:24:07;10.37;;;9.07;;
15567;SDS011;7885;42.596;23.044;2023-05-06T04:26:34;11.50;;;10.40;;
15567;SDS011;7885;42.596;23.044;2023-05-06T04:29:01;10.23;;;9.23;;
15567;SDS011;7885;42.596;23.044;2023-05-06T04:31:27;10.40;;;9.40;;
15567;SDS011;7885;42.596;23.044;2023-05-06T04:33:54;10.00;;;9.10;;
15567;SDS011;7885;42.596;23.044;2023-05-06T04:36:21;11.13;;;9.17;;
15567;SDS011;7885;42.596;23.044;2023-05-06T04:38:47;9.60;;;8.70;;
15567;SDS011;7885;42.596;23.044;2023-05-06T04:41:18;11.23;;;10.03;;
15567;SDS011;7885;42.596;23.044;2023-05-06T04:43:46;11.10;;;10.00;;
15567;SDS011;7885;42.596;23.044;2023-05-06T04:46:12;11.77;;;10.57;;
15567;SDS011;7885;42.596;23.044;2023-05-06T04:48:40;16.60;;;12.47;;
15567;SDS011;7885;42.596;23.044;2023-05-06T04:51:06;15.17;;;11.53;;
15567;SDS011;7885;42.596;23.044;2023-05-06T04:53:33;11.63;;;10.17;;
15567;SDS011;7885;42.596;23.044;2023-05-06T04:56:00;12.87;;;11.10;;
15567;SDS011;7885;42.596;23.044;2023-05-06T04:58:28;12.67;;;11.47;;
15567;SDS011;7885;42.596;23.044;2023-05-06T05:00:55;15.30;;;12.07;;
15567;SDS011;7885;42.596;23.044;2023-05-06T05:03:22;15.23;;;11.37;;
15567;SDS011;7885;42.596;23.044;2023-05-06T05:05:49;14.47;;;11.40;;
15567;SDS011;7885;42.596;23.044;2023-05-06T05:08:16;11.13;;;10.00;;
15567;SDS011;7885;42.596;23.044;2023-05-06T05:10:42;12.80;;;10.07;;
15567;SDS011;7885;42.596;23.044;2023-05-06T05:13:09;11.73;;;10.53;;
15567;SDS011;7885;42.596;23.044;2023-05-06T05:15:37;11.50;;;10.10;;
15567;SDS011;7885;42.596;23.044;2023-05-06T05:18:04;9.83;;;8.87;;
15567;SDS011;7885;42.596;23.044;2023-05-06T05:20:31;9.87;;;8.97;;
15567;SDS011;7885;42.596;23.044;2023-05-06T05:22:57;10.40;;;9.30;;
15567;SDS011;7885;42.596;23.044;2023-05-06T05:25:24;11.00;;;10.00;;
15567;SDS011;7885;42.596;23.044;2023-05-06T05:31:14;11.20;;;9.03;;
15567;SDS011;7885;42.596;23.044;2023-05-06T05:33:40;8.90;;;8.00;;
15567;SDS011;7885;42.596;23.044;2023-05-06T05:36:07;8.07;;;7.27;;
15567;SDS011;7885;42.596;23.044;2023-05-06T05:38:36;7.10;;;6.40;;
15567;SDS011;7885;42.596;23.044;2023-05-06T05:41:03;7.17;;;6.47;;
15567;SDS011;7885;42.596;23.044;2023-05-06T05:43:30;6.60;;;5.60;;
15567;SDS011;7885;42.596;23.044;2023-05-06T05:45:57;6.97;;;5.63;;
15567;SDS011;7885;42.596;23.044;2023-05-06T05:48:25;6.67;;;5.87;;
15567;SDS011;7885;42.596;23.044;2023-05-06T05:50:51;6.60;;;6.00;;
15567;SDS011;7885;42.596;23.044;2023-05-06T05:53:18;8.20;;;5.63;;
15567;SDS011;7885;42.596;23.044;2023-05-06T05:55:45;18.07;;;6.27;;
15567;SDS011;7885;42.596;23.044;2023-05-06T05:58:11;7.80;;;6.10;;
15567;SDS011;7885;42.596;23.044;2023-05-06T06:00:38;6.00;;;5.30;;
15567;SDS011;7885;42.596;23.044;2023-05-06T06:03:05;7.23;;;5.70;;
15567;SDS011;7885;42.596;23.044;2023-05-06T06:05:33;6.13;;;5.47;;
15567;SDS011;7885;42.596;23.044;2023-05-06T06:08:00;6.07;;;5.47;;
15567;SDS011;7885;42.596;23.044;2023-05-06T06:10:26;6.17;;;5.53;;
15567;SDS011;7885;42.596;23.044;2023-05-06T06:12:53;5.97;;;5.37;;
15567;SDS011;7885;42.596;23.044;2023-05-06T06:15:20;5.97;;;5.13;;
15567;SDS011;7885;42.596;23.044;2023-05-06T06:17:47;8.70;;;6.10;;
15567;SDS011;7885;42.596;23.044;2023-05-06T06:20:13;7.67;;;5.97;;
15567;SDS011;7885;42.596;23.044;2023-05-06T06:22:42;11.00;;;5.57;;
15567;SDS011;7885;42.596;23.044;2023-05-06T06:25:08;8.57;;;6.10;;
15567;SDS011;7885;42.596;23.044;2023-05-06T06:27:35;7.67;;;5.97;;
15567;SDS011;7885;42.596;23.044;2023-05-06T06:30:02;7.93;;;5.73;;
15567;SDS011;7885;42.596;23.044;2023-05-06T06:32:29;7.00;;;5.53;;
15567;SDS011;7885;42.596;23.044;2023-05-06T06:34:56;6.20;;;5.60;;
15567;SDS011;7885;42.596;23.044;2023-05-06T06:37:22;6.33;;;5.43;;
15567;SDS011;7885;42.596;23.044;2023-05-06T06:39:51;6.63;;;6.03;;
15567;SDS011;7885;42.596;23.044;2023-05-06T06:42:17;5.83;;;5.30;;
15567;SDS011;7885;42.596;23.044;2023-05-06T06:44:44;6.50;;;5.57;;
15567;SDS011;7885;42.596;23.044;2023-05-06T06:47:11;5.63;;;5.13;;
15567;SDS011;7885;42.596;23.044;2023-05-06T06:49:37;6.13;;;5.30;;
15567;SDS011;7885;42.596;23.044;2023-05-06T06:52:04;8.27;;;5.77;;
15567;SDS011;7885;42.596;23.044;2023-05-06T06:54:31;5.93;;;5.33;;
15567;SDS011;7885;42.596;23.044;2023-05-06T06:56:59;6.20;;;5.13;;
15567;SDS011;7885;42.596;23.044;2023-05-06T06:59:26;6.67;;;5.27;;
15567;SDS011;7885;42.596;23.044;2023-05-06T07:01:52;5.63;;;5.00;;
15567;SDS011;7885;42.596;23.044;2023-05-06T07:04:19;5.73;;;5.03;;
15567;SDS011;7885;42.596;23.044;2023-05-06T07:06:46;6.50;;;5.00;;
15567;SDS011;7885;42.596;23.044;2023-05-06T07:09:12;6.50;;;5.20;;
15567;SDS011;7885;42.596;23.044;2023-05-06T07:11:39;5.83;;;5.20;;
15567;SDS011;7885;42.596;23.044;2023-05-06T07:14:07;5.80;;;5.20;;
15567;SDS011;7885;42.596;23.044;2023-05-06T07:16:34;5.60;;;5.10;;
15567;SDS011;7885;42.596;23.044;2023-05-06T07:19:01;5.43;;;4.93;;
15567;SDS011;7885;42.596;23.044;2023-05-06T07:21:28;5.83;;;5.13;;
15567;SDS011;7885;42.596;23.044;2023-05-06T07:27:17;5.40;;;4.90;;
15567;SDS011;7885;42.596;23.044;2023-05-06T07:29:45;6.53;;;5.43;;
15567;SDS011;7885;42.596;23.044;2023-05-06T07:32:12;6.57;;;4.97;;
15567;SDS011;7885;42.596;23.044;2023-05-06T07:34:39;6.03;;;5.03;;
15567;SDS011;7885;42.596;23.044;2023-05-06T07:37:05;6.60;;;5.60;;
15567;SDS011;7885;42.596;23.044;2023-05-06T07:39:32;6.33;;;5.73;;
15567;SDS011;7885;42.596;23.044;2023-05-06T07:41:59;6.60;;;5.97;;
15567;SDS011;7885;42.596;23.044;2023-05-06T07:44:26;8.53;;;6.23;;
15567;SDS011;7885;42.596;23.044;2023-05-06T07:46:54;7.30;;;5.93;;
15567;SDS011;7885;42.596;23.044;2023-05-06T07:49:21;13.97;;;6.83;;
15567;SDS011;7885;42.596;23.044;2023-05-06T07:51:49;7.03;;;6.33;;
15567;SDS011;7885;42.596;23.044;2023-05-06T07:54:16;6.23;;;5.63;;
15567;SDS011;7885;42.596;23.044;2023-05-06T07:56:42;7.80;;;6.40;;
15567;SDS011;7885;42.596;23.044;2023-05-06T07:59:09;7.87;;;5.43;;
15567;SDS011;7885;42.596;23.044;2023-05-06T08:01:36;10.33;;;6.27;;
15567;SDS011;7885;42.596;23.044;2023-05-06T08:04:04;6.33;;;5.57;;
15567;SDS011;7885;42.596;23.044;2023-05-06T08:08:58;10.80;;;5.60;;
15567;SDS011;7885;42.596;23.044;2023-05-06T08:11:24;8.70;;;5.77;;
15567;SDS011;7885;42.596;23.044;2023-05-06T08:13:51;6.87;;;5.43;;
15567;SDS011;7885;42.596;23.044;2023-05-06T08:16:18;5.83;;;5.10;;
15567;SDS011;7885;42.596;23.044;2023-05-06T08:18:45;6.23;;;5.60;;
15567;SDS011;7885;42.596;23.044;2023-05-06T08:21:13;6.27;;;5.40;;
15567;SDS011;7885;42.596;23.044;2023-05-06T08:27:01;7.33;;;5.30;;
15567;SDS011;7885;42.596;23.044;2023-05-06T08:29:28;5.87;;;5.07;;
15567;SDS011;7885;42.596;23.044;2023-05-06T08:31:55;8.57;;;5.03;;
15567;SDS011;7885;42.596;23.044;2023-05-06T08:34:22;6.17;;;5.17;;
15567;SDS011;7885;42.596;23.044;2023-05-06T08:36:50;10.50;;;5.40;;
15567;SDS011;7885;42.596;23.044;2023-05-06T08:39:16;6.30;;;5.07;;
15567;SDS011;7885;42.596;23.044;2023-05-06T08:41:44;6.73;;;5.43;;
15567;SDS011;7885;42.596;23.044;2023-05-06T08:44:13;5.60;;;5.10;;
15567;SDS011;7885;42.596;23.044;2023-05-06T08:46:42;5.53;;;4.97;;
15567;SDS011;7885;42.596;23.044;2023-05-06T08:49:09;7.07;;;5.60;;
15567;SDS011;7885;42.596;23.044;2023-05-06T08:54:59;6.20;;;5.60;;
15567;SDS011;7885;42.596;23.044;2023-05-06T08:57:29;7.83;;;5.27;;
15567;SDS011;7885;42.596;23.044;2023-05-06T08:59:56;6.83;;;5.03;;
15567;SDS011;7885;42.596;23.044;2023-05-06T09:02:23;5.50;;;4.93;;
15567;SDS011;7885;42.596;23.044;2023-05-06T09:04:50;5.80;;;5.30;;
15567;SDS011;7885;42.596;23.044;2023-05-06T09:07:19;8.67;;;4.87;;
15567;SDS011;7885;42.596;23.044;2023-05-06T09:09:46;6.17;;;5.20;;
15567;SDS011;7885;42.596;23.044;2023-05-06T09:12:14;5.57;;;5.07;;
15567;SDS011;7885;42.596;23.044;2023-05-06T09:14:41;6.23;;;5.03;;
15567;SDS011;7885;42.596;23.044;2023-05-06T09:17:15;5.40;;;4.77;;
15567;SDS011;7885;42.596;23.044;2023-05-06T09:19:47;5.50;;;4.57;;
15567;SDS011;7885;42.596;23.044;2023-05-06T09:22:14;6.20;;;4.63;;
15567;SDS011;7885;42.596;23.044;2023-05-06T09:24:42;5.57;;;4.30;;
15567;SDS011;7885;42.596;23.044;2023-05-06T09:27:08;5.47;;;4.73;;
15567;SDS011;7885;42.596;23.044;2023-05-06T09:29:37;7.60;;;4.70;;
15567;SDS011;7885;42.596;23.044;2023-05-06T09:32:05;6.53;;;4.20;;
15567;SDS011;7885;42.596;23.044;2023-05-06T09:34:34;6.40;;;4.37;;
15567;SDS011;7885;42.596;23.044;2023-05-06T09:37:01;5.13;;;4.10;;
15567;SDS011;7885;42.596;23.044;2023-05-06T09:39:29;4.80;;;4.17;;
15567;SDS011;7885;42.596;23.044;2023-05-06T09:41:56;11.73;;;4.93;;
15567;SDS011;7885;42.596;23.044;2023-05-06T09:44:22;7.10;;;4.30;;
15567;SDS011;7885;42.596;23.044;2023-05-06T09:46:51;4.93;;;4.00;;
15567;SDS011;7885;42.596;23.044;2023-05-06T09:49:18;4.70;;;4.30;;
15567;SDS011;7885;42.596;23.044;2023-05-06T09:51:47;8.03;;;4.30;;
15567;SDS011;7885;42.596;23.044;2023-05-06T09:54:16;7.70;;;3.83;;
15567;SDS011;7885;42.596;23.044;2023-05-06T09:56:43;5.87;;;4.10;;
15567;SDS011;7885;42.596;23.044;2023-05-06T09:59:11;7.10;;;3.53;;
15567;SDS011;7885;42.596;23.044;2023-05-06T10:01:42;4.33;;;3.80;;
15567;SDS011;7885;42.596;23.044;2023-05-06T10:04:10;7.40;;;4.07;;
15567;SDS011;7885;42.596;23.044;2023-05-06T10:16:45;5.53;;;3.73;;
15567;SDS011;7885;42.596;23.044;2023-05-06T10:19:17;5.67;;;4.30;;
15567;SDS011;7885;42.596;23.044;2023-05-06T10:21:48;5.60;;;3.77;;
15567;SDS011;7885;42.596;23.044;2023-05-06T10:24:21;5.37;;;4.53;;
15567;SDS011;7885;42.596;23.044;2023-05-06T10:26:53;5.77;;;4.10;;
15567;SDS011;7885;42.596;23.044;2023-05-06T10:29:21;5.00;;;4.07;;
15567;SDS011;7885;42.596;23.044;2023-05-06T10:31:52;5.83;;;4.07;;
15567;SDS011;7885;42.596;23.044;2023-05-06T10:34:21;10.00;;;3.67;;
15567;SDS011;7885;42.596;23.044;2023-05-06T10:36:50;5.63;;;3.70;;
15567;SDS011;7885;42.596;23.044;2023-05-06T10:39:21;6.30;;;3.73;;
15567;SDS011;7885;42.596;23.044;2023-05-06T10:41:48;13.50;;;5.07;;
15567;SDS011;7885;42.596;23.044;2023-05-06T10:44:15;9.13;;;3.97;;
15567;SDS011;7885;42.596;23.044;2023-05-06T10:46:55;9.63;;;3.70;;
15567;SDS011;7885;42.596;23.044;2023-05-06T10:49:25;8.73;;;3.00;;
15567;SDS011;7885;42.596;23.044;2023-05-06T10:54:54;13.17;;;4.47;;
15567;SDS011;7885;42.596;23.044;2023-05-06T10:57:20;8.20;;;3.73;;
15567;SDS011;7885;42.596;23.044;2023-05-06T10:59:50;5.97;;;3.47;;
15567;SDS011;7885;42.596;23.044;2023-05-06T11:02:20;3.97;;;2.97;;
15567;SDS011;7885;42.596;23.044;2023-05-06T11:04:52;4.83;;;3.53;;
15567;SDS011;7885;42.596;23.044;2023-05-06T11:07:25;3.80;;;3.50;;
15567;SDS011;7885;42.596;23.044;2023-05-06T11:09:52;5.73;;;3.30;;
15567;SDS011;7885;42.596;23.044;2023-05-06T11:12:20;3.77;;;3.40;;
15567;SDS011;7885;42.596;23.044;2023-05-06T11:14:47;8.37;;;4.07;;
15567;SDS011;7885;42.596;23.044;2023-05-06T11:17:27;5.53;;;4.10;;
15567;SDS011;7885;42.596;23.044;2023-05-06T11:22:45;6.27;;;4.10;;
15567;SDS011;7885;42.596;23.044;2023-05-06T11:25:12;5.87;;;3.60;;
15567;SDS011;7885;42.596;23.044;2023-05-06T11:27:39;5.00;;;3.53;;
15567;SDS011;7885;42.596;23.044;2023-05-06T11:30:06;4.17;;;3.77;;
15567;SDS011;7885;42.596;23.044;2023-05-06T11:32:39;6.03;;;3.97;;
15567;SDS011;7885;42.596;23.044;2023-05-06T11:35:08;4.10;;;3.70;;
15567;SDS011;7885;42.596;23.044;2023-05-06T11:37:38;4.30;;;3.87;;
15567;SDS011;7885;42.596;23.044;2023-05-06T11:40:12;7.37;;;3.90;;
15567;SDS011;7885;42.596;23.044;2023-05-06T11:49:23;7.13;;;4.03;;
15567;SDS011;7885;42.596;23.044;2023-05-06T11:51:50;5.20;;;3.70;;
15567;SDS011;7885;42.596;23.044;2023-05-06T11:54:18;4.43;;;3.37;;
15567;SDS011;7885;42.596;23.044;2023-05-06T11:56:50;5.20;;;3.20;;
15567;SDS011;7885;42.596;23.044;2023-05-06T11:59:25;4.77;;;3.00;;
15567;SDS011;7885;42.596;23.044;2023-05-06T12:01:55;8.03;;;3.33;;
15567;SDS011;7885;42.596;23.044;2023-05-06T12:04:22;13.00;;;4.67;;
15567;SDS011;7885;42.596;23.044;2023-05-06T12:06:49;12.33;;;4.73;;
15567;SDS011;7885;42.596;23.044;2023-05-06T12:09:16;6.97;;;3.63;;
15567;SDS011;7885;42.596;23.044;2023-05-06T12:11:47;10.13;;;3.47;;
15567;SDS011;7885;42.596;23.044;2023-05-06T12:14:14;5.40;;;3.60;;
15567;SDS011;7885;42.596;23.044;2023-05-06T12:16:41;5.93;;;3.67;;
15567;SDS011;7885;42.596;23.044;2023-05-06T12:19:08;6.10;;;3.53;;
15567;SDS011;7885;42.596;23.044;2023-05-06T12:21:38;4.53;;;2.90;;
15567;SDS011;7885;42.596;23.044;2023-05-06T12:24:05;4.43;;;2.93;;
15567;SDS011;7885;42.596;23.044;2023-05-06T12:26:41;4.37;;;3.10;;
15567;SDS011;7885;42.596;23.044;2023-05-06T12:29:13;4.73;;;3.10;;
15567;SDS011;7885;42.596;23.044;2023-05-06T12:31:42;5.87;;;3.37;;
15567;SDS011;7885;42.596;23.044;2023-05-06T12:34:11;3.43;;;3.10;;
15567;SDS011;7885;42.596;23.044;2023-05-06T12:36:38;5.40;;;3.53;;
15567;SDS011;7885;42.596;23.044;2023-05-06T12:39:06;5.90;;;3.60;;
15567;SDS011;7885;42.596;23.044;2023-05-06T12:41:34;6.60;;;3.67;;
15567;SDS011;7885;42.596;23.044;2023-05-06T12:44:02;4.03;;;2.83;;
15567;SDS011;7885;42.596;23.044;2023-05-06T12:46:51;8.60;;;4.00;;
15567;SDS011;7885;42.596;23.044;2023-05-06T12:49:18;8.93;;;3.57;;
15567;SDS011;7885;42.596;23.044;2023-05-06T12:51:45;8.43;;;3.80;;
15567;SDS011;7885;42.596;23.044;2023-05-06T12:54:27;10.37;;;4.10;;
15567;SDS011;7885;42.596;23.044;2023-05-06T12:56:54;7.40;;;3.63;;
15567;SDS011;7885;42.596;23.044;2023-05-06T12:59:22;6.27;;;3.30;;
15567;SDS011;7885;42.596;23.044;2023-05-06T13:01:49;7.77;;;3.60;;
15567;SDS011;7885;42.596;23.044;2023-05-06T13:04:17;9.30;;;3.57;;
15567;SDS011;7885;42.596;23.044;2023-05-06T13:06:44;11.07;;;3.93;;
15567;SDS011;7885;42.596;23.044;2023-05-06T13:09:11;13.70;;;4.20;;
15567;SDS011;7885;42.596;23.044;2023-05-06T13:11:38;14.23;;;4.37;;
15567;SDS011;7885;42.596;23.044;2023-05-06T13:14:05;9.17;;;3.53;;
15567;SDS011;7885;42.596;23.044;2023-05-06T13:16:31;5.03;;;3.13;;
15567;SDS011;7885;42.596;23.044;2023-05-06T13:19:01;9.70;;;4.10;;
15567;SDS011;7885;42.596;23.044;2023-05-06T13:21:28;9.17;;;3.93;;
15567;SDS011;7885;42.596;23.044;2023-05-06T13:23:56;5.33;;;3.37;;
15567;SDS011;7885;42.596;23.044;2023-05-06T13:26:22;10.43;;;3.70;;
15567;SDS011;7885;42.596;23.044;2023-05-06T13:28:49;5.53;;;3.13;;
15567;SDS011;7885;42.596;23.044;2023-05-06T13:31:16;12.90;;;3.70;;
15567;SDS011;7885;42.596;23.044;2023-05-06T13:33:42;9.40;;;3.50;;
15567;SDS011;7885;42.596;23.044;2023-05-06T13:36:10;6.07;;;3.63;;
15567;SDS011;7885;42.596;23.044;2023-05-06T13:38:37;8.50;;;3.30;;
15567;SDS011;7885;42.596;23.044;2023-05-06T13:41:05;7.57;;;3.30;;
15567;SDS011;7885;42.596;23.044;2023-05-06T13:43:32;5.20;;;3.00;;
15567;SDS011;7885;42.596;23.044;2023-05-06T13:45:59;4.07;;;3.07;;
15567;SDS011;7885;42.596;23.044;2023-05-06T13:48:26;3.40;;;3.10;;
15567;SDS011;7885;42.596;23.044;2023-05-06T13:50:52;4.20;;;3.10;;
15567;SDS011;7885;42.596;23.044;2023-05-06T13:53:20;4.60;;;3.40;;
15567;SDS011;7885;42.596;23.044;2023-05-06T13:55:47;4.57;;;2.90;;
15567;SDS011;7885;42.596;23.044;2023-05-06T13:58:14;4.27;;;3.20;;
15567;SDS011;7885;42.596;23.044;2023-05-06T14:00:41;3.90;;;3.40;;
15567;SDS011;7885;42.596;23.044;2023-05-06T14:03:08;3.83;;;3.40;;
15567;SDS011;7885;42.596;23.044;2023-05-06T14:05:34;4.17;;;2.93;;
15567;SDS011;7885;42.596;23.044;2023-05-06T14:08:01;4.73;;;3.10;;
15567;SDS011;7885;42.596;23.044;2023-05-06T14:10:29;6.57;;;3.30;;
15567;SDS011;7885;42.596;23.044;2023-05-06T14:12:56;5.13;;;2.80;;
15567;SDS011;7885;42.596;23.044;2023-05-06T14:15:23;4.47;;;2.90;;
15567;SDS011;7885;42.596;23.044;2023-05-06T14:17:49;4.80;;;3.00;;
15567;SDS011;7885;42.596;23.044;2023-05-06T14:20:16;4.93;;;2.93;;
15567;SDS011;7885;42.596;23.044;2023-05-06T14:22:43;6.60;;;3.50;;
15567;SDS011;7885;42.596;23.044;2023-05-06T14:25:09;4.83;;;3.80;;
15567;SDS011;7885;42.596;23.044;2023-05-06T14:27:37;15.40;;;4.10;;
15567;SDS011;7885;42.596;23.044;2023-05-06T14:30:05;6.30;;;3.30;;
15567;SDS011;7885;42.596;23.044;2023-05-06T14:32:33;8.33;;;3.70;;
15567;SDS011;7885;42.596;23.044;2023-05-06T14:34:59;4.77;;;3.30;;
15567;SDS011;7885;42.596;23.044;2023-05-06T14:37:26;7.80;;;3.97;;
15567;SDS011;7885;42.596;23.044;2023-05-06T14:39:53;13.17;;;4.97;;
15567;SDS011;7885;42.596;23.044;2023-05-06T14:42:19;5.60;;;3.00;;
15567;SDS011;7885;42.596;23.044;2023-05-06T14:44:47;3.87;;;3.00;;
15567;SDS011;7885;42.596;23.044;2023-05-06T14:47:14;5.23;;;3.00;;
15567;SDS011;7885;42.596;23.044;2023-05-06T14:49:41;3.57;;;3.27;;
15567;SDS011;7885;42.596;23.044;2023-05-06T14:52:08;3.27;;;2.97;;
15567;SDS011;7885;42.596;23.044;2023-05-06T14:54:34;4.07;;;2.93;;
15567;SDS011;7885;42.596;23.044;2023-05-06T14:57:06;5.23;;;3.00;;
15567;SDS011;7885;42.596;23.044;2023-05-06T14:59:33;3.50;;;2.93;;
15567;SDS011;7885;42.596;23.044;2023-05-06T15:02:02;4.30;;;2.97;;
15567;SDS011;7885;42.596;23.044;2023-05-06T15:04:29;3.20;;;2.90;;
15567;SDS011;7885;42.596;23.044;2023-05-06T15:06:55;5.30;;;3.40;;
15567;SDS011;7885;42.596;23.044;2023-05-06T15:09:22;4.57;;;3.40;;
15567;SDS011;7885;42.596;23.044;2023-05-06T15:11:49;3.40;;;3.10;;
15567;SDS011;7885;42.596;23.044;2023-05-06T15:14:16;6.43;;;3.70;;
15567;SDS011;7885;42.596;23.044;2023-05-06T15:16:43;5.07;;;3.17;;
15567;SDS011;7885;42.596;23.044;2023-05-06T15:19:11;4.03;;;3.00;;
15567;SDS011;7885;42.596;23.044;2023-05-06T15:21:37;4.37;;;3.20;;
15567;SDS011;7885;42.596;23.044;2023-05-06T15:24:04;7.13;;;3.50;;
15567;SDS011;7885;42.596;23.044;2023-05-06T15:26:32;7.93;;;3.73;;
15567;SDS011;7885;42.596;23.044;2023-05-06T15:28:58;6.20;;;3.27;;
15567;SDS011;7885;42.596;23.044;2023-05-06T15:31:25;8.90;;;3.30;;
15567;SDS011;7885;42.596;23.044;2023-05-06T15:33:52;6.97;;;3.20;;
15567;SDS011;7885;42.596;23.044;2023-05-06T15:36:20;9.27;;;3.27;;
15567;SDS011;7885;42.596;23.044;2023-05-06T15:38:56;10.80;;;4.03;;
15567;SDS011;7885;42.596;23.044;2023-05-06T15:41:24;11.67;;;4.53;;